Jackson, TN

5:44 AM CDT on May 22, 2015 (GMT -0500)
Historic East Main Street | | Change Station
CLOSE
Current Station
Personal Weather Station
Location: Jackson, TN
Elevation: 410 ft
Nearby Weather Stations

Elev 410 ft 35.61 °N, 88.81 °W | Updated 12 seconds ago

Fog
Fog
47.3 °F
Feels Like 47 °F
N
3.0
Wind Variable Wind from NE
Gusts 7.0 mph

Today
High -- | Low -- °F
--% Chance of Precip.
Yesterday
High -- | Low -- °F
Precip. -- in
5:45 AM 7:58 PM
Waxing Crescent, 20% visible
Pressure 30.24 in
Visibility 5.0 miles
Clouds Clear
Windchill 47 °F
Dew Point 46 °F
Humidity 94%
Rainfall 0.00 in
Snow Depth Not available.
UV 0 out of 12
Pollen 5.70 out of 12
Air Quality Not available.
Flu Activity No Activity
METAR KMKL 220953Z AUTO 00000KT 5SM BR CLR 07/06 A3024 RMK AO2 SLP240 T00720056

More Conditions Fewer Conditions

Pressure 30.24 in
Visibility 5.0 miles
Clouds Clear
Windchill 47 °F
Dew Point 46 °F
Humidity 94%
Rainfall 0.00 in
Snow Depth Not available.
UV 0 out of 12
Pollen 5.70 out of 12
Air Quality Not available.
Flu Activity No Activity
METAR KMKL 220953Z AUTO 00000KT 5SM BR CLR 07/06 A3024 RMK AO2 SLP240 T00720056

More Conditions Fewer Conditions

10-Day Weather Forecast

Almanac

Astronomy

May. 22, 2015 Rise Set
Actual Time
Civil Twilight
Nautical Twilight
Astronomical Twilight
Moon
Length of Visible Light
Length of Day
Tomorrow will be .
, % of the Moon is Illuminated

Today's Extremes

State Highs State Lows

Community

WunderPhotos

Upload Photos

1,823,200 photos uploaded!

WunderBlogs® & News

Nearby

Air Quality

  Air Quality AQ Index Pollutant
Not available.

Snow Depth

Station Depth Elevation

Earthquake Activity

City Distance Mag. Time & Date
Minimum magnitude displayed is 2.5.

Coastal Water Temperatures

Place Temperature

Stations

Nearby Weather Stations

Station Location Temp. Windchill Dew Point Humidity Wind Precip. Elev Updated Type